createdAt,value
2017-08-16T00:00:23.890Z,0
2017-08-16T00:01:24.566Z,0
2017-08-16T00:02:25.603Z,0
2017-08-16T00:03:26.270Z,0
2017-08-16T00:04:27.047Z,0
2017-08-16T00:05:27.727Z,0
2017-08-16T00:06:28.405Z,0
2017-08-16T00:07:29.187Z,0
2017-08-16T00:08:29.824Z,0
2017-08-16T00:09:30.567Z,0
2017-08-16T00:10:31.232Z,0
2017-08-16T00:11:31.906Z,0
2017-08-16T00:12:32.605Z,0
2017-08-16T00:13:33.626Z,0
2017-08-16T00:14:34.451Z,0
2017-08-16T00:15:35.129Z,0
2017-08-16T00:16:35.829Z,0
2017-08-16T00:17:36.541Z,0
2017-08-16T00:18:37.211Z,0
2017-08-16T00:19:38.297Z,0
2017-08-16T00:20:38.970Z,0
2017-08-16T00:21:39.647Z,0
2017-08-16T00:22:40.323Z,0
2017-08-16T00:23:41.050Z,0
2017-08-16T00:24:41.786Z,0
2017-08-16T00:25:42.459Z,0
2017-08-16T00:26:43.438Z,0
2017-08-16T00:27:44.121Z,0
2017-08-16T00:28:44.814Z,0
2017-08-16T00:29:45.580Z,0
2017-08-16T00:30:46.261Z,0
2017-08-16T00:31:46.951Z,0
2017-08-16T00:32:47.924Z,0
2017-08-16T00:33:48.681Z,0
2017-08-16T00:34:49.367Z,0
2017-08-16T00:35:50.056Z,0
2017-08-16T00:36:50.730Z,0
2017-08-16T00:37:51.418Z,0
2017-08-16T00:38:52.379Z,0
2017-08-16T00:39:53.065Z,0
2017-08-16T00:40:53.793Z,0
2017-08-16T00:41:54.485Z,0
2017-08-16T00:42:55.143Z,0
2017-08-16T00:43:55.968Z,0
2017-08-16T00:44:56.935Z,0
2017-08-16T00:45:57.620Z,0
2017-08-16T00:46:58.297Z,0
2017-08-16T00:47:58.980Z,0
2017-08-16T00:48:59.805Z,0
2017-08-16T00:50:00.492Z,0
2017-08-16T00:51:01.459Z,0
2017-08-16T00:52:02.143Z,0
2017-08-16T00:53:02.820Z,0
2017-08-16T00:54:03.550Z,0
2017-08-16T00:55:04.285Z,0
2017-08-16T00:56:04.966Z,0
2017-08-16T00:57:05.641Z,0
2017-08-16T00:58:06.628Z,0
2017-08-16T00:59:07.493Z,0
2017-08-16T01:00:08.480Z,0
2017-08-16T01:01:09.490Z,0
2017-08-16T01:02:10.155Z,0
2017-08-16T01:03:10.851Z,0
2017-08-16T01:04:11.879Z,0
2017-08-16T01:05:12.562Z,0
2017-08-16T01:06:13.225Z,0
2017-08-16T01:07:13.946Z,0
2017-08-16T01:08:14.622Z,0
2017-08-16T01:09:15.360Z,0
2017-08-16T01:10:16.022Z,0
2017-08-16T01:11:17.006Z,0
2017-08-16T01:12:17.682Z,0
2017-08-16T01:13:18.367Z,0
2017-08-16T01:14:19.238Z,0
2017-08-16T01:15:19.970Z,0
2017-08-16T01:16:20.655Z,0
2017-08-16T01:17:21.630Z,0
2017-08-16T01:18:22.347Z,0
2017-08-16T01:19:23.091Z,0
2017-08-16T01:20:23.808Z,0
2017-08-16T01:21:24.485Z,0
2017-08-16T01:22:25.168Z,0
2017-08-16T01:23:26.139Z,0
2017-08-16T01:24:26.828Z,0
2017-08-16T01:25:27.502Z,0
2017-08-16T01:26:28.175Z,0
2017-08-16T01:27:28.838Z,0
2017-08-16T01:28:29.585Z,0
2017-08-16T01:29:30.573Z,0
2017-08-16T01:30:31.251Z,0
2017-08-16T01:31:31.944Z,0
2017-08-16T01:32:32.652Z,0
2017-08-16T01:33:33.385Z,0
2017-08-16T01:34:34.041Z,0
2017-08-16T01:35:35.035Z,0
2017-08-16T01:36:35.755Z,0
2017-08-16T01:37:36.416Z,0
2017-08-16T01:38:37.316Z,0
2017-08-16T01:39:37.964Z,0
2017-08-16T01:40:38.647Z,0
2017-08-16T01:41:39.398Z,0
2017-08-16T01:42:40.341Z,0
2017-08-16T01:43:41.068Z,0
2017-08-16T01:44:41.804Z,0
2017-08-16T01:45:42.470Z,0
2017-08-16T01:46:43.165Z,0
2017-08-16T01:47:43.889Z,0
2017-08-16T01:48:44.961Z,0
2017-08-16T01:49:45.615Z,0
2017-08-16T01:50:46.302Z,0
2017-08-16T01:51:47.004Z,0
2017-08-16T01:52:47.684Z,0
2017-08-16T01:53:48.411Z,0
2017-08-16T01:54:49.391Z,0
2017-08-16T01:55:50.077Z,0
2017-08-16T01:56:50.777Z,0
2017-08-16T01:57:51.465Z,0
2017-08-16T01:58:52.235Z,0
2017-08-16T01:59:52.934Z,0
2017-08-16T02:00:53.893Z,0
2017-08-16T02:01:54.614Z,0
2017-08-16T02:02:55.285Z,0
2017-08-16T02:03:56.016Z,0
2017-08-16T02:04:56.755Z,0
2017-08-16T02:05:57.446Z,0
2017-08-16T02:06:58.413Z,0
2017-08-16T02:07:59.119Z,0
2017-08-16T02:08:59.852Z,0
2017-08-16T02:10:00.536Z,0
2017-08-16T02:11:01.214Z,0
2017-08-16T02:12:01.905Z,0
2017-08-16T02:13:02.619Z,0
2017-08-16T02:14:03.644Z,0
2017-08-16T02:15:04.321Z,0
2017-08-16T02:16:04.999Z,0
2017-08-16T02:17:05.692Z,0
2017-08-16T02:18:06.405Z,0
2017-08-16T02:19:07.141Z,0
2017-08-16T02:20:08.311Z,0
2017-08-16T02:21:08.986Z,0
2017-08-16T02:22:09.955Z,0
2017-08-16T02:23:10.650Z,0
2017-08-16T02:24:11.412Z,0
2017-08-16T02:25:12.104Z,0
2017-08-16T02:26:13.093Z,0
2017-08-16T02:27:13.802Z,0
2017-08-16T02:28:14.486Z,0
2017-08-16T02:29:15.148Z,0
2017-08-16T02:30:15.848Z,0
2017-08-16T02:31:16.508Z,0
2017-08-16T02:32:17.501Z,0
2017-08-16T02:33:18.171Z,0
2017-08-16T02:34:18.892Z,0
2017-08-16T02:35:19.636Z,0
2017-08-16T02:36:20.346Z,0
2017-08-16T02:37:21.024Z,0
2017-08-16T02:38:22.004Z,0
2017-08-16T02:39:22.795Z,0
2017-08-16T02:40:23.478Z,0
2017-08-16T02:41:24.147Z,0
2017-08-16T02:42:24.834Z,0
2017-08-16T02:43:25.502Z,0
2017-08-16T02:44:26.252Z,0
2017-08-16T02:45:27.208Z,0
2017-08-16T02:46:27.907Z,0
2017-08-16T02:47:28.568Z,0
2017-08-16T02:48:29.243Z,0
2017-08-16T02:49:30.169Z,0
2017-08-16T02:50:30.844Z,0
2017-08-16T02:51:31.885Z,0
2017-08-16T02:52:32.604Z,0
2017-08-16T02:53:33.303Z,0
2017-08-16T02:54:34.081Z,0
2017-08-16T02:55:34.805Z,0
2017-08-16T02:56:35.531Z,0
2017-08-16T02:57:36.508Z,0
2017-08-16T02:58:37.246Z,0
2017-08-16T02:59:37.969Z,0
2017-08-16T03:00:38.687Z,0
2017-08-16T03:01:39.398Z,0
2017-08-16T03:02:40.087Z,0
2017-08-16T03:03:41.061Z,0
2017-08-16T03:04:41.855Z,0
2017-08-16T03:05:42.531Z,0
2017-08-16T03:06:43.191Z,0
2017-08-16T03:07:43.887Z,0
2017-08-16T03:08:44.553Z,0
2017-08-16T03:09:45.596Z,0
2017-08-16T03:10:46.262Z,0
2017-08-16T03:11:46.950Z,0
2017-08-16T03:12:47.630Z,0
2017-08-16T03:13:48.297Z,0
2017-08-16T03:14:49.124Z,0
2017-08-16T03:15:50.094Z,0
2017-08-16T03:16:50.776Z,0
2017-08-16T03:17:51.459Z,0
2017-08-16T03:18:52.123Z,0
2017-08-16T03:19:52.855Z,0
2017-08-16T03:20:53.537Z,0
2017-08-16T03:21:54.521Z,0
2017-08-16T03:22:55.241Z,0
2017-08-16T03:23:55.932Z,0
2017-08-16T03:24:56.842Z,0
2017-08-16T03:25:57.541Z,0
2017-08-16T03:26:58.197Z,0
2017-08-16T03:27:59.194Z,0
2017-08-16T03:28:59.855Z,0
2017-08-16T03:30:00.579Z,0
2017-08-16T03:31:01.267Z,0
2017-08-16T03:32:01.940Z,0
2017-08-16T03:33:02.623Z,0
2017-08-16T03:34:03.614Z,0
2017-08-16T03:35:04.354Z,0
2017-08-16T03:36:05.076Z,0
2017-08-16T03:37:05.797Z,0
2017-08-16T03:38:06.479Z,0
2017-08-16T03:39:07.158Z,0
2017-08-16T03:40:08.386Z,0
2017-08-16T03:41:09.064Z,0
2017-08-16T03:42:09.738Z,0
2017-08-16T03:43:10.443Z,0
2017-08-16T03:44:11.101Z,0
2017-08-16T03:45:11.820Z,0
2017-08-16T03:46:12.594Z,0
2017-08-16T03:47:13.552Z,0
2017-08-16T03:48:14.247Z,0
2017-08-16T03:49:14.906Z,0
2017-08-16T03:50:15.694Z,0
2017-08-16T03:51:16.397Z,0
2017-08-16T03:52:17.066Z,0
2017-08-16T03:53:18.043Z,0
2017-08-16T03:54:18.729Z,0
2017-08-16T03:55:19.516Z,4
2017-08-16T03:56:20.191Z,4
2017-08-16T03:57:20.876Z,4
2017-08-16T03:58:21.630Z,4
2017-08-16T03:59:22.617Z,4
2017-08-16T04:00:23.633Z,4
2017-08-16T04:01:24.279Z,4
2017-08-16T04:02:24.966Z,8
2017-08-16T04:03:25.698Z,8
2017-08-16T04:04:26.377Z,8
2017-08-16T04:05:27.415Z,12
2017-08-16T04:06:28.142Z,8
2017-08-16T04:07:28.823Z,12
2017-08-16T04:08:29.653Z,16
2017-08-16T04:09:30.315Z,16
2017-08-16T04:10:31.210Z,20
2017-08-16T04:11:32.188Z,24
2017-08-16T04:12:32.858Z,28
2017-08-16T04:13:33.556Z,32
2017-08-16T04:14:34.230Z,28
2017-08-16T04:15:34.957Z,32
2017-08-16T04:16:35.696Z,32
2017-08-16T04:17:36.705Z,40
2017-08-16T04:18:37.374Z,44
2017-08-16T04:19:38.050Z,52
2017-08-16T04:20:38.780Z,60
2017-08-16T04:21:39.453Z,64
2017-08-16T04:22:40.147Z,68
2017-08-16T04:23:41.180Z,68
2017-08-16T04:24:41.851Z,68
2017-08-16T04:25:42.698Z,68
2017-08-16T04:26:43.438Z,72
2017-08-16T04:27:44.127Z,80
2017-08-16T04:28:44.844Z,92
2017-08-16T04:29:45.839Z,108
2017-08-16T04:30:46.622Z,120
2017-08-16T04:31:47.307Z,128
2017-08-16T04:32:47.989Z,128
2017-08-16T04:33:48.662Z,132
2017-08-16T04:34:49.354Z,132
2017-08-16T04:35:50.459Z,136
2017-08-16T04:36:51.119Z,136
2017-08-16T04:37:51.802Z,144
2017-08-16T04:38:52.486Z,152
2017-08-16T04:39:53.162Z,168
2017-08-16T04:40:54.051Z,180
2017-08-16T04:41:55.053Z,188
2017-08-16T04:42:55.738Z,196
2017-08-16T04:43:56.458Z,188
2017-08-16T04:44:57.170Z,176
2017-08-16T04:45:57.889Z,172
2017-08-16T04:46:58.573Z,172
2017-08-16T04:47:59.604Z,176
2017-08-16T04:49:00.292Z,180
2017-08-16T04:50:01.026Z,188
2017-08-16T04:51:01.721Z,204
2017-08-16T04:52:02.411Z,220
2017-08-16T04:53:03.203Z,248
2017-08-16T04:54:04.183Z,264
2017-08-16T04:55:04.859Z,280
2017-08-16T04:56:05.715Z,296
2017-08-16T04:57:06.363Z,328
2017-08-16T04:58:07.176Z,368
2017-08-16T04:59:07.890Z,408
2017-08-16T05:00:08.878Z,436
2017-08-16T05:01:09.622Z,444
2017-08-16T05:02:10.273Z,424
2017-08-16T05:03:11.055Z,388
2017-08-16T05:04:11.729Z,364
2017-08-16T05:05:12.434Z,372
2017-08-16T05:06:13.471Z,388
2017-08-16T05:07:14.161Z,412
2017-08-16T05:08:14.987Z,448
2017-08-16T05:09:15.679Z,496
2017-08-16T05:10:16.384Z,552
2017-08-16T05:11:17.064Z,612
2017-08-16T05:12:18.089Z,664
2017-08-16T05:13:18.854Z,700
2017-08-16T05:14:19.534Z,736
2017-08-16T05:15:20.237Z,784
2017-08-16T05:16:20.938Z,816
2017-08-16T05:17:21.632Z,812
2017-08-16T05:18:22.944Z,796
2017-08-16T05:19:23.602Z,824
2017-08-16T05:20:24.287Z,876
2017-08-16T05:21:25.012Z,932
2017-08-16T05:22:25.723Z,984
2017-08-16T05:23:26.481Z,1024
2017-08-16T05:24:27.534Z,1044
2017-08-16T05:25:28.194Z,1060
2017-08-16T05:26:29.080Z,1088
2017-08-16T05:27:29.756Z,1120
2017-08-16T05:28:30.501Z,1176
2017-08-16T05:29:31.228Z,1232
2017-08-16T05:30:31.918Z,1268
2017-08-16T05:31:32.588Z,1268
2017-08-16T05:32:33.275Z,1260
2017-08-16T05:33:34.013Z,1284
2017-08-16T05:34:34.710Z,1344
2017-08-16T05:35:35.437Z,1432
2017-08-16T05:36:36.425Z,1484
2017-08-16T05:37:37.185Z,1448
2017-08-16T05:38:37.925Z,1348
2017-08-16T05:39:38.608Z,1284
2017-08-16T05:40:39.281Z,1304
2017-08-16T05:41:39.968Z,1392
2017-08-16T05:42:41.015Z,1484
2017-08-16T05:43:41.704Z,1552
2017-08-16T05:44:42.441Z,1552
2017-08-16T05:45:43.122Z,1528
2017-08-16T05:46:43.869Z,1524
2017-08-16T05:47:44.683Z,1532
2017-08-16T05:48:45.669Z,1544
2017-08-16T05:49:46.367Z,1576
2017-08-16T05:50:47.058Z,1608
2017-08-16T05:51:47.791Z,1656
2017-08-16T05:52:48.571Z,1700
2017-08-16T05:53:49.288Z,1748
2017-08-16T05:54:50.281Z,1784
2017-08-16T05:55:50.969Z,1828
2017-08-16T05:56:51.687Z,1848
2017-08-16T05:57:52.433Z,1888
2017-08-16T05:58:53.599Z,1936
2017-08-16T05:59:54.273Z,1928
2017-08-16T06:00:55.009Z,1888
2017-08-16T06:01:56.088Z,1880
2017-08-16T06:02:56.896Z,1884
2017-08-16T06:03:57.554Z,1836
2017-08-16T06:04:58.259Z,1824
2017-08-16T06:05:58.934Z,1896
2017-08-16T06:06:59.609Z,2008
2017-08-16T06:08:00.597Z,2092
2017-08-16T06:09:01.294Z,2148
2017-08-16T06:10:01.988Z,2204
2017-08-16T06:11:02.727Z,2224
2017-08-16T06:12:03.416Z,2252
2017-08-16T06:13:04.270Z,2336
2017-08-16T06:14:05.285Z,2424
2017-08-16T06:15:05.974Z,2456
2017-08-16T06:16:06.679Z,2360
2017-08-16T06:17:07.342Z,2260
2017-08-16T06:18:08.093Z,2196
2017-08-16T06:19:09.326Z,2160
2017-08-16T06:20:10.279Z,2172
2017-08-16T06:21:10.963Z,2252
2017-08-16T06:22:11.652Z,2372
2017-08-16T06:23:12.399Z,2496
2017-08-16T06:24:13.086Z,2612
2017-08-16T06:25:13.763Z,2728
2017-08-16T06:26:14.806Z,2840
2017-08-16T06:27:15.504Z,2880
2017-08-16T06:28:16.290Z,2860
2017-08-16T06:29:16.991Z,2832
2017-08-16T06:30:17.682Z,2800
2017-08-16T06:31:18.420Z,2768
2017-08-16T06:32:19.481Z,2752
2017-08-16T06:33:20.191Z,2752
2017-08-16T06:34:20.893Z,2732
2017-08-16T06:35:21.610Z,2724
2017-08-16T06:36:22.328Z,2752
2017-08-16T06:37:23.001Z,2804
2017-08-16T06:38:24.099Z,2892
2017-08-16T06:39:24.765Z,3000
2017-08-16T06:40:25.443Z,3088
2017-08-16T06:41:26.165Z,3124
2017-08-16T06:42:26.871Z,3140
2017-08-16T06:43:27.668Z,3168
2017-08-16T06:44:28.753Z,3208
2017-08-16T06:45:29.490Z,3256
2017-08-16T06:46:30.180Z,3284
2017-08-16T06:47:30.865Z,3308
2017-08-16T06:48:31.604Z,3344
2017-08-16T06:49:32.286Z,3400
2017-08-16T06:50:33.276Z,3444
2017-08-16T06:51:34.006Z,3484
2017-08-16T06:52:34.663Z,3512
2017-08-16T06:53:35.457Z,3512
2017-08-16T06:54:36.144Z,3476
2017-08-16T06:55:36.879Z,3324
2017-08-16T06:56:37.870Z,3108
2017-08-16T06:57:38.550Z,2852
2017-08-16T06:58:39.547Z,2616
2017-08-16T06:59:40.513Z,2516
2017-08-16T07:00:41.241Z,2560
2017-08-16T07:01:41.914Z,2684
2017-08-16T07:02:42.892Z,2856
2017-08-16T07:03:43.661Z,3172
2017-08-16T07:04:44.335Z,3420
2017-08-16T07:05:45.015Z,3508
2017-08-16T07:06:45.707Z,3448
2017-08-16T07:07:46.410Z,3264
2017-08-16T07:08:47.474Z,3136
2017-08-16T07:09:48.170Z,3128
2017-08-16T07:10:48.896Z,3204
2017-08-16T07:11:49.599Z,3272
2017-08-16T07:12:50.282Z,3260
2017-08-16T07:13:51.122Z,3172
2017-08-16T07:14:51.837Z,3056
2017-08-16T07:15:52.865Z,2964
2017-08-16T07:16:53.640Z,2872
2017-08-16T07:17:54.304Z,2824
2017-08-16T07:18:55.044Z,2800
2017-08-16T07:19:55.794Z,2752
2017-08-16T07:20:56.479Z,2656
2017-08-16T07:21:57.169Z,2640
2017-08-16T07:22:57.861Z,2668
2017-08-16T07:23:58.591Z,2628
2017-08-16T07:24:59.279Z,2604
2017-08-16T07:26:00.048Z,2616
2017-08-16T07:27:00.760Z,2660
2017-08-16T07:28:01.736Z,2736
2017-08-16T07:29:02.539Z,2796
2017-08-16T07:30:03.216Z,2792
2017-08-16T07:31:04.574Z,2720
2017-08-16T07:32:05.269Z,2612
2017-08-16T07:33:06.013Z,2524
2017-08-16T07:34:07.090Z,2528
2017-08-16T07:35:07.827Z,2548
2017-08-16T07:36:08.565Z,2552
2017-08-16T07:37:09.259Z,2552
2017-08-16T07:38:09.943Z,2548
2017-08-16T07:39:10.968Z,2556
2017-08-16T07:40:11.714Z,2524
2017-08-16T07:41:12.435Z,2528
2017-08-16T07:42:13.126Z,2564
2017-08-16T07:43:13.807Z,2556
2017-08-16T07:44:14.558Z,2652
2017-08-16T07:45:15.240Z,2704
2017-08-16T07:46:16.244Z,2596
2017-08-16T07:47:16.913Z,2560
2017-08-16T07:48:17.640Z,2660
2017-08-16T07:49:18.438Z,2712
2017-08-16T07:50:19.138Z,2876
2017-08-16T07:51:20.069Z,2876
2017-08-16T07:52:21.166Z,2944
2017-08-16T07:53:21.907Z,3084
2017-08-16T07:54:22.634Z,3340
2017-08-16T07:55:23.482Z,3396
2017-08-16T07:56:24.174Z,3524
2017-08-16T07:57:24.869Z,3780
2017-08-16T07:58:25.853Z,3928
2017-08-16T07:59:26.594Z,4012
2017-08-16T08:00:27.393Z,4152
2017-08-16T08:01:28.087Z,4448
2017-08-16T08:02:29.081Z,4560
2017-08-16T08:03:29.782Z,4500
2017-08-16T08:04:30.773Z,4412
2017-08-16T08:05:31.548Z,4260
2017-08-16T08:06:32.318Z,4316
2017-08-16T08:07:33.008Z,4208
2017-08-16T08:08:33.693Z,4260
2017-08-16T08:09:34.689Z,4324
2017-08-16T08:10:35.422Z,4396
2017-08-16T08:11:36.200Z,4556
2017-08-16T08:12:36.911Z,4464
2017-08-16T08:13:37.594Z,4092
2017-08-16T08:14:38.289Z,3816
2017-08-16T08:15:39.534Z,3784
2017-08-16T08:16:40.232Z,3992
2017-08-16T08:17:40.923Z,4388
2017-08-16T08:18:41.667Z,4720
2017-08-16T08:19:42.381Z,4784
2017-08-16T08:20:43.106Z,4508
2017-08-16T08:21:44.125Z,4244
2017-08-16T08:22:44.797Z,3768
2017-08-16T08:23:45.512Z,3412
2017-08-16T08:24:46.191Z,3392
2017-08-16T08:25:46.928Z,3508
2017-08-16T08:26:47.626Z,3640
2017-08-16T08:27:48.822Z,3780
2017-08-16T08:28:49.628Z,3812
2017-08-16T08:29:50.341Z,3728
2017-08-16T08:30:51.185Z,3872
2017-08-16T08:31:51.852Z,4132
2017-08-16T08:32:52.557Z,4300
2017-08-16T08:33:53.562Z,4280
2017-08-16T08:34:54.269Z,4536
2017-08-16T08:35:55.110Z,4656
2017-08-16T08:36:55.947Z,4388
2017-08-16T08:37:56.649Z,4016
2017-08-16T08:38:57.327Z,3972
2017-08-16T08:39:58.320Z,4368
2017-08-16T08:40:59.186Z,4344
2017-08-16T08:41:59.894Z,4180
2017-08-16T08:43:00.589Z,4004
2017-08-16T08:44:01.295Z,3888
2017-08-16T08:45:01.975Z,3904
2017-08-16T08:46:03.226Z,4008
2017-08-16T08:47:03.903Z,4168
2017-08-16T08:48:04.601Z,4392
2017-08-16T08:49:05.330Z,4612
2017-08-16T08:50:06.060Z,4764
2017-08-16T08:51:06.907Z,4924
2017-08-16T08:52:07.677Z,5064
2017-08-16T08:53:08.450Z,5012
2017-08-16T08:54:09.148Z,4968
2017-08-16T08:55:09.841Z,5024
2017-08-16T08:56:10.583Z,5096
2017-08-16T08:57:11.553Z,5068
2017-08-16T08:58:12.312Z,5004
2017-08-16T08:59:12.992Z,4980
2017-08-16T09:00:13.774Z,4956
2017-08-16T09:01:14.501Z,4796
2017-08-16T09:02:15.218Z,4612
2017-08-16T09:03:16.194Z,4340
2017-08-16T09:04:16.899Z,4172
2017-08-16T09:05:17.631Z,4272
2017-08-16T09:06:18.344Z,4328
2017-08-16T09:07:19.000Z,4392
2017-08-16T09:08:20.069Z,4472
2017-08-16T09:09:20.745Z,4548
2017-08-16T09:10:21.548Z,4564
2017-08-16T09:11:22.285Z,4520
2017-08-16T09:12:22.974Z,4560
2017-08-16T09:13:23.666Z,4616
2017-08-16T09:14:24.660Z,4652
2017-08-16T09:15:25.501Z,4652
2017-08-16T09:16:26.191Z,4672
2017-08-16T09:17:26.956Z,4688
2017-08-16T09:18:27.648Z,4668
2017-08-16T09:19:28.400Z,4676
2017-08-16T09:20:29.592Z,4696
2017-08-16T09:21:30.300Z,4716
2017-08-16T09:22:31.039Z,4864
2017-08-16T09:23:31.757Z,4916
2017-08-16T09:24:32.406Z,5000
2017-08-16T09:25:33.503Z,5076
2017-08-16T09:26:34.190Z,5288
2017-08-16T09:27:34.888Z,5484
2017-08-16T09:28:35.619Z,5548
2017-08-16T09:29:36.319Z,5576
2017-08-16T09:30:37.105Z,5612
2017-08-16T09:31:38.158Z,5668
2017-08-16T09:32:38.928Z,5768
2017-08-16T09:33:39.682Z,5888
2017-08-16T09:34:40.451Z,5992
2017-08-16T09:35:41.612Z,5816
2017-08-16T09:36:42.724Z,5464
2017-08-16T09:37:43.389Z,5476
2017-08-16T09:38:44.076Z,5528
2017-08-16T09:39:44.776Z,5636
2017-08-16T09:40:45.536Z,5784
2017-08-16T09:41:46.239Z,5912
2017-08-16T09:42:47.259Z,6464
2017-08-16T09:43:48.011Z,6852
2017-08-16T09:44:48.717Z,6860
2017-08-16T09:45:49.597Z,6676
2017-08-16T09:46:50.290Z,6492
2017-08-16T09:47:51.029Z,6156
2017-08-16T09:48:52.099Z,5976
2017-08-16T09:49:52.862Z,5756
2017-08-16T09:50:53.600Z,5648
2017-08-16T09:51:54.354Z,5640
2017-08-16T09:52:55.125Z,5752
2017-08-16T09:53:56.118Z,6072
2017-08-16T09:54:57.121Z,6196
2017-08-16T09:55:57.886Z,6016
2017-08-16T09:56:58.731Z,5936
2017-08-16T09:57:59.680Z,6004
2017-08-16T09:59:00.350Z,6220
2017-08-16T10:00:01.340Z,6288
2017-08-16T10:01:02.195Z,6252
2017-08-16T10:02:02.920Z,6200
2017-08-16T10:03:03.677Z,6048
2017-08-16T10:04:04.399Z,6020
2017-08-16T10:05:05.403Z,5908
2017-08-16T10:06:06.349Z,5700
2017-08-16T10:07:07.068Z,5572
2017-08-16T10:08:07.730Z,5592
2017-08-16T10:09:08.416Z,5640
2017-08-16T10:10:09.104Z,5788
2017-08-16T10:11:10.003Z,6104
2017-08-16T10:12:10.999Z,6396
2017-08-16T10:13:11.687Z,6680
2017-08-16T10:14:12.366Z,6884
2017-08-16T10:15:13.063Z,7052
2017-08-16T10:16:13.906Z,7016
2017-08-16T10:17:14.596Z,6936
2017-08-16T10:18:15.282Z,6784
2017-08-16T10:19:16.275Z,6832
2017-08-16T10:20:16.973Z,6920
2017-08-16T10:21:17.752Z,6816
2017-08-16T10:22:18.498Z,6848
2017-08-16T10:23:19.839Z,6704
2017-08-16T10:24:20.881Z,6508
2017-08-16T10:25:22.069Z,6300
2017-08-16T10:26:23.051Z,6320
2017-08-16T10:27:23.721Z,6488
2017-08-16T10:28:24.801Z,6280
2017-08-16T10:29:25.509Z,5836
2017-08-16T10:30:26.206Z,5272
2017-08-16T10:31:27.315Z,4908
2017-08-16T10:32:27.993Z,4984
2017-08-16T10:33:28.736Z,5084
2017-08-16T10:34:29.462Z,5096
2017-08-16T10:35:30.208Z,5076
2017-08-16T10:36:31.427Z,5156
2017-08-16T10:37:32.172Z,5312
2017-08-16T10:38:32.867Z,5548
2017-08-16T10:39:33.919Z,5692
2017-08-16T10:40:34.603Z,5792
2017-08-16T10:41:35.874Z,5988
2017-08-16T10:42:37.310Z,6016
2017-08-16T10:43:38.080Z,5824
2017-08-16T10:44:38.773Z,5836
2017-08-16T10:45:39.644Z,6016
2017-08-16T10:46:40.354Z,6220
2017-08-16T10:47:41.358Z,6224
2017-08-16T10:48:42.073Z,6352
2017-08-16T10:49:42.833Z,6484
2017-08-16T10:50:43.589Z,6536
2017-08-16T10:51:44.579Z,6512
2017-08-16T10:52:45.310Z,6496
2017-08-16T10:53:46.338Z,6348
2017-08-16T10:54:47.024Z,6244
2017-08-16T10:55:47.689Z,6388
2017-08-16T10:56:48.435Z,6392
2017-08-16T10:57:49.209Z,6372
2017-08-16T10:58:49.981Z,6204
2017-08-16T10:59:50.656Z,6092
2017-08-16T11:00:51.361Z,6336
2017-08-16T11:01:52.097Z,6392
2017-08-16T11:02:52.899Z,6324
2017-08-16T11:03:53.912Z,6472
2017-08-16T11:04:54.629Z,6824
2017-08-16T11:05:55.332Z,6968
2017-08-16T11:06:56.127Z,7128
2017-08-16T11:07:56.838Z,7172
2017-08-16T11:08:57.568Z,7236
2017-08-16T11:09:58.577Z,7220
2017-08-16T11:10:59.348Z,7280
2017-08-16T11:12:00.239Z,6988
2017-08-16T11:13:00.915Z,6928
2017-08-16T11:14:01.617Z,7016
2017-08-16T11:15:02.611Z,6892
2017-08-16T11:16:03.376Z,7084
2017-08-16T11:17:04.156Z,6800
2017-08-16T11:18:04.867Z,6816
2017-08-16T11:19:05.590Z,6888
2017-08-16T11:20:06.277Z,7112
2017-08-16T11:21:07.280Z,7104
2017-08-16T11:22:08.242Z,7204
2017-08-16T11:23:08.935Z,7284
2017-08-16T11:24:09.652Z,7296
2017-08-16T11:25:10.361Z,7192
2017-08-16T11:26:11.124Z,7144
2017-08-16T11:27:12.260Z,6800
2017-08-16T11:28:13.000Z,6748
2017-08-16T11:29:13.727Z,6912
2017-08-16T11:30:14.425Z,6584
2017-08-16T11:31:15.121Z,7048
2017-08-16T11:32:16.313Z,7540
2017-08-16T11:33:17.048Z,8172
2017-08-16T11:34:17.734Z,8648
2017-08-16T11:35:18.490Z,9036
2017-08-16T11:36:19.184Z,9104
2017-08-16T11:37:20.132Z,9012
2017-08-16T11:38:21.117Z,8796
2017-08-16T11:39:21.868Z,8780
2017-08-16T11:40:22.612Z,8772
2017-08-16T11:41:23.311Z,8908
2017-08-16T11:42:24.110Z,8568
2017-08-16T11:43:25.207Z,8148
2017-08-16T11:44:25.916Z,7808
2017-08-16T11:45:26.651Z,7680
2017-08-16T11:46:27.317Z,7512
2017-08-16T11:47:28.571Z,7516
2017-08-16T11:48:29.398Z,7704
2017-08-16T11:49:30.393Z,8144
2017-08-16T11:50:31.093Z,8572
2017-08-16T11:51:31.796Z,8884
2017-08-16T11:52:32.585Z,9164
2017-08-16T11:53:33.304Z,9268
2017-08-16T11:54:34.047Z,9076
2017-08-16T11:55:35.043Z,8632
2017-08-16T11:56:35.870Z,8140
2017-08-16T11:57:36.851Z,7524
2017-08-16T11:58:37.541Z,7280
2017-08-16T11:59:38.250Z,7160
2017-08-16T12:00:39.413Z,7428
2017-08-16T12:01:40.129Z,7744
2017-08-16T12:02:40.882Z,8064
2017-08-16T12:03:41.572Z,8508
2017-08-16T12:04:42.368Z,8828
2017-08-16T12:05:43.105Z,8344
2017-08-16T12:06:44.199Z,7888
2017-08-16T12:07:45.173Z,7488
2017-08-16T12:08:45.866Z,7212
2017-08-16T12:09:46.632Z,6912
2017-08-16T12:10:47.375Z,7216
2017-08-16T12:11:48.618Z,7708
2017-08-16T12:12:49.324Z,8028
2017-08-16T12:13:50.011Z,8304
2017-08-16T12:14:50.759Z,8640
2017-08-16T12:15:51.429Z,9288
2017-08-16T12:16:52.193Z,9576
2017-08-16T12:17:53.223Z,9480
2017-08-16T12:18:53.897Z,9312
2017-08-16T12:19:54.595Z,9096
2017-08-16T12:20:55.300Z,9656
2017-08-16T12:21:56.026Z,9892
2017-08-16T12:22:56.780Z,10132
2017-08-16T12:23:57.777Z,10204
2017-08-16T12:24:58.491Z,9980
2017-08-16T12:25:59.219Z,9696
2017-08-16T12:27:00.053Z,9348
2017-08-16T12:28:00.761Z,9132
2017-08-16T12:29:01.762Z,8964
2017-08-16T12:30:02.525Z,8924
2017-08-16T12:31:03.212Z,8852
2017-08-16T12:32:04.101Z,9000
2017-08-16T12:33:04.794Z,8900
2017-08-16T12:34:05.465Z,8412
2017-08-16T12:35:06.457Z,8152
2017-08-16T12:36:07.153Z,8276
2017-08-16T12:37:07.838Z,8904
2017-08-16T12:38:08.547Z,9552
2017-08-16T12:39:09.233Z,10124
2017-08-16T12:40:09.969Z,10508
2017-08-16T12:41:11.027Z,10876
2017-08-16T12:42:11.811Z,11456
2017-08-16T12:43:12.566Z,11840
2017-08-16T12:44:13.234Z,11736
2017-08-16T12:45:14.015Z,11488
2017-08-16T12:46:14.676Z,11540
2017-08-16T12:47:15.723Z,11396
2017-08-16T12:48:16.567Z,11140
2017-08-16T12:49:17.319Z,11156
2017-08-16T12:50:18.094Z,10960
2017-08-16T12:51:18.806Z,10772
2017-08-16T12:52:19.570Z,10664
2017-08-16T12:53:20.594Z,10524
2017-08-16T12:54:21.366Z,10548
2017-08-16T12:55:22.054Z,10768
2017-08-16T12:56:22.756Z,10720
2017-08-16T12:57:23.750Z,10472
2017-08-16T12:58:24.812Z,10088
2017-08-16T12:59:25.492Z,9864
2017-08-16T13:00:26.197Z,9724
2017-08-16T13:01:26.917Z,9688
2017-08-16T13:02:27.722Z,9856
2017-08-16T13:03:28.449Z,10036
2017-08-16T13:04:29.495Z,10536
2017-08-16T13:05:30.208Z,11488
2017-08-16T13:06:30.927Z,11440
2017-08-16T13:07:31.764Z,11720
2017-08-16T13:08:32.462Z,12088
2017-08-16T13:09:33.475Z,12496
2017-08-16T13:10:34.181Z,13780
2017-08-16T13:11:34.911Z,16620
2017-08-16T13:12:35.824Z,16044
2017-08-16T13:13:36.512Z,17056
2017-08-16T13:14:37.215Z,17604
2017-08-16T13:15:38.242Z,18244
2017-08-16T13:16:38.920Z,19036
2017-08-16T13:17:39.685Z,19396
2017-08-16T13:18:40.393Z,19732
2017-08-16T13:19:41.076Z,19452
2017-08-16T13:20:41.816Z,18400
2017-08-16T13:21:42.578Z,18504
2017-08-16T13:22:43.324Z,18412
2017-08-16T13:23:44.044Z,16968
2017-08-16T13:24:44.789Z,16740
2017-08-16T13:25:45.529Z,14996
2017-08-16T13:26:46.526Z,14724
2017-08-16T13:27:47.414Z,13404
2017-08-16T13:28:48.131Z,14136
2017-08-16T13:29:48.802Z,14004
2017-08-16T13:30:49.531Z,14088
2017-08-16T13:31:50.448Z,14316
2017-08-16T13:34:06.966Z,15480
2017-08-16T13:35:08.125Z,16164
2017-08-16T13:36:08.798Z,16592
2017-08-16T13:37:09.781Z,15728
2017-08-16T13:38:10.479Z,13504
2017-08-16T13:39:11.235Z,13332
2017-08-16T13:40:12.052Z,13412
2017-08-16T13:41:12.813Z,13536
2017-08-16T13:42:13.469Z,13444
2017-08-16T13:43:14.522Z,13476
2017-08-16T13:44:15.210Z,13936
2017-08-16T13:45:16.126Z,12148
2017-08-16T13:46:16.878Z,13464
2017-08-16T13:47:17.649Z,14128
2017-08-16T13:48:18.718Z,14236
2017-08-16T13:49:19.483Z,13916
2017-08-16T13:50:20.272Z,11856
2017-08-16T13:51:20.938Z,11256
2017-08-16T13:52:21.740Z,10612
2017-08-16T13:53:22.460Z,10168
2017-08-16T13:54:23.584Z,9864
2017-08-16T13:55:24.286Z,9344